sensor_id;sensor_type;location;lat;lon;timestamp;P1;durP1;ratioP1;P2;durP2;ratioP2
6376;SDS011;3221;48.858;10.128;2023-11-18T00:01:34;9.53;;;8.57;;
6376;SDS011;3221;48.858;10.128;2023-11-18T00:04:02;10.27;;;8.93;;
6376;SDS011;3221;48.858;10.128;2023-11-18T00:06:29;10.03;;;9.00;;
6376;SDS011;3221;48.858;10.128;2023-11-18T00:08:55;10.40;;;9.30;;
6376;SDS011;3221;48.858;10.128;2023-11-18T00:11:22;10.03;;;8.70;;
6376;SDS011;3221;48.858;10.128;2023-11-18T00:13:50;9.70;;;8.70;;
6376;SDS011;3221;48.858;10.128;2023-11-18T00:16:17;10.00;;;8.90;;
6376;SDS011;3221;48.858;10.128;2023-11-18T00:18:45;10.33;;;9.33;;
6376;SDS011;3221;48.858;10.128;2023-11-18T00:21:12;9.17;;;8.27;;
6376;SDS011;3221;48.858;10.128;2023-11-18T00:23:39;9.40;;;8.50;;
6376;SDS011;3221;48.858;10.128;2023-11-18T00:26:06;10.00;;;8.97;;
6376;SDS011;3221;48.858;10.128;2023-11-18T00:28:33;10.00;;;9.00;;
6376;SDS011;3221;48.858;10.128;2023-11-18T00:31:00;10.70;;;9.60;;
6376;SDS011;3221;48.858;10.128;2023-11-18T00:33:27;10.53;;;9.43;;
6376;SDS011;3221;48.858;10.128;2023-11-18T00:35:54;11.23;;;9.33;;
6376;SDS011;3221;48.858;10.128;2023-11-18T00:38:21;11.93;;;9.77;;
6376;SDS011;3221;48.858;10.128;2023-11-18T00:40:48;10.80;;;9.70;;
6376;SDS011;3221;48.858;10.128;2023-11-18T00:43:16;11.00;;;9.80;;
6376;SDS011;3221;48.858;10.128;2023-11-18T00:45:43;10.73;;;9.60;;
6376;SDS011;3221;48.858;10.128;2023-11-18T00:48:10;10.30;;;9.23;;
6376;SDS011;3221;48.858;10.128;2023-11-18T00:50:37;10.20;;;9.20;;
6376;SDS011;3221;48.858;10.128;2023-11-18T00:53:05;10.90;;;9.80;;
6376;SDS011;3221;48.858;10.128;2023-11-18T00:55:32;10.27;;;9.03;;
6376;SDS011;3221;48.858;10.128;2023-11-18T00:57:59;10.67;;;9.57;;
6376;SDS011;3221;48.858;10.128;2023-11-18T01:00:26;10.47;;;9.33;;
6376;SDS011;3221;48.858;10.128;2023-11-18T01:02:53;10.87;;;9.77;;
6376;SDS011;3221;48.858;10.128;2023-11-18T01:05:21;11.40;;;10.20;;
6376;SDS011;3221;48.858;10.128;2023-11-18T01:07:48;11.10;;;9.90;;
6376;SDS011;3221;48.858;10.128;2023-11-18T01:10:16;10.53;;;9.43;;
6376;SDS011;3221;48.858;10.128;2023-11-18T01:12:45;11.00;;;9.87;;
6376;SDS011;3221;48.858;10.128;2023-11-18T01:15:12;10.37;;;9.30;;
6376;SDS011;3221;48.858;10.128;2023-11-18T01:17:40;11.83;;;10.63;;
6376;SDS011;3221;48.858;10.128;2023-11-18T01:20:07;10.57;;;9.47;;
6376;SDS011;3221;48.858;10.128;2023-11-18T01:22:36;12.20;;;10.87;;
6376;SDS011;3221;48.858;10.128;2023-11-18T01:25:05;11.13;;;10.03;;
6376;SDS011;3221;48.858;10.128;2023-11-18T01:27:32;11.57;;;10.37;;
6376;SDS011;3221;48.858;10.128;2023-11-18T01:30:02;12.00;;;10.43;;
6376;SDS011;3221;48.858;10.128;2023-11-18T01:32:30;11.60;;;10.27;;
6376;SDS011;3221;48.858;10.128;2023-11-18T01:34:58;11.57;;;10.43;;
6376;SDS011;3221;48.858;10.128;2023-11-18T01:37:25;11.13;;;9.87;;
6376;SDS011;3221;48.858;10.128;2023-11-18T01:39:52;11.00;;;9.90;;
6376;SDS011;3221;48.858;10.128;2023-11-18T01:42:18;11.10;;;9.90;;
6376;SDS011;3221;48.858;10.128;2023-11-18T01:44:45;10.83;;;9.70;;
6376;SDS011;3221;48.858;10.128;2023-11-18T01:47:12;10.60;;;9.50;;
6376;SDS011;3221;48.858;10.128;2023-11-18T01:49:40;11.73;;;10.27;;
6376;SDS011;3221;48.858;10.128;2023-11-18T01:52:08;11.43;;;10.23;;
6376;SDS011;3221;48.858;10.128;2023-11-18T01:54:36;11.67;;;10.43;;
6376;SDS011;3221;48.858;10.128;2023-11-18T01:57:04;12.13;;;10.73;;
6376;SDS011;3221;48.858;10.128;2023-11-18T01:59:36;12.10;;;10.87;;
6376;SDS011;3221;48.858;10.128;2023-11-18T02:02:08;12.10;;;10.90;;
6376;SDS011;3221;48.858;10.128;2023-11-18T02:04:34;13.23;;;11.03;;
6376;SDS011;3221;48.858;10.128;2023-11-18T02:07:02;12.00;;;10.63;;
6376;SDS011;3221;48.858;10.128;2023-11-18T02:09:35;12.13;;;10.83;;
6376;SDS011;3221;48.858;10.128;2023-11-18T02:12:23;11.70;;;10.50;;
6376;SDS011;3221;48.858;10.128;2023-11-18T02:15:01;11.80;;;10.60;;
6376;SDS011;3221;48.858;10.128;2023-11-18T02:17:39;11.90;;;10.70;;
6376;SDS011;3221;48.858;10.128;2023-11-18T02:20:11;12.67;;;11.37;;
6376;SDS011;3221;48.858;10.128;2023-11-18T02:22:44;12.53;;;10.87;;
6376;SDS011;3221;48.858;10.128;2023-11-18T02:25:16;13.13;;;11.73;;
6376;SDS011;3221;48.858;10.128;2023-11-18T02:27:45;12.77;;;11.00;;
6376;SDS011;3221;48.858;10.128;2023-11-18T02:30:16;12.70;;;11.40;;
6376;SDS011;3221;48.858;10.128;2023-11-18T02:35:32;15.53;;;12.17;;
6376;SDS011;3221;48.858;10.128;2023-11-18T02:38:04;12.17;;;10.90;;
6376;SDS011;3221;48.858;10.128;2023-11-18T02:40:32;13.23;;;11.83;;
6376;SDS011;3221;48.858;10.128;2023-11-18T02:43:06;12.73;;;11.43;;
6376;SDS011;3221;48.858;10.128;2023-11-18T02:45:35;13.47;;;11.77;;
6376;SDS011;3221;48.858;10.128;2023-11-18T02:48:04;13.30;;;11.90;;
6376;SDS011;3221;48.858;10.128;2023-11-18T02:50:34;13.07;;;11.77;;
6376;SDS011;3221;48.858;10.128;2023-11-18T02:53:04;12.37;;;10.97;;
6376;SDS011;3221;48.858;10.128;2023-11-18T02:55:31;14.33;;;11.67;;
6376;SDS011;3221;48.858;10.128;2023-11-18T02:57:58;13.07;;;11.67;;
6376;SDS011;3221;48.858;10.128;2023-11-18T03:00:26;13.87;;;12.33;;
6376;SDS011;3221;48.858;10.128;2023-11-18T03:02:54;12.53;;;11.23;;
6376;SDS011;3221;48.858;10.128;2023-11-18T03:05:21;13.67;;;11.90;;
6376;SDS011;3221;48.858;10.128;2023-11-18T03:07:48;13.87;;;12.33;;
6376;SDS011;3221;48.858;10.128;2023-11-18T03:10:21;13.53;;;11.97;;
6376;SDS011;3221;48.858;10.128;2023-11-18T03:12:49;14.20;;;12.70;;
6376;SDS011;3221;48.858;10.128;2023-11-18T03:15:16;14.03;;;12.33;;
6376;SDS011;3221;48.858;10.128;2023-11-18T03:17:44;13.60;;;11.97;;
6376;SDS011;3221;48.858;10.128;2023-11-18T03:20:17;13.50;;;12.00;;
6376;SDS011;3221;48.858;10.128;2023-11-18T03:22:45;15.00;;;12.40;;
6376;SDS011;3221;48.858;10.128;2023-11-18T03:25:13;13.67;;;12.27;;
6376;SDS011;3221;48.858;10.128;2023-11-18T03:27:40;14.63;;;12.27;;
6376;SDS011;3221;48.858;10.128;2023-11-18T03:30:08;15.07;;;12.53;;
6376;SDS011;3221;48.858;10.128;2023-11-18T03:32:36;12.83;;;11.53;;
6376;SDS011;3221;48.858;10.128;2023-11-18T03:35:05;14.10;;;12.60;;
6376;SDS011;3221;48.858;10.128;2023-11-18T03:37:36;14.03;;;11.70;;
6376;SDS011;3221;48.858;10.128;2023-11-18T03:40:11;14.23;;;12.23;;
6376;SDS011;3221;48.858;10.128;2023-11-18T03:42:40;12.33;;;10.90;;
6376;SDS011;3221;48.858;10.128;2023-11-18T03:45:08;14.10;;;12.43;;
6376;SDS011;3221;48.858;10.128;2023-11-18T03:47:36;13.07;;;11.73;;
6376;SDS011;3221;48.858;10.128;2023-11-18T03:50:02;15.03;;;11.53;;
6376;SDS011;3221;48.858;10.128;2023-11-18T03:52:30;14.00;;;11.77;;
6376;SDS011;3221;48.858;10.128;2023-11-18T03:54:57;13.53;;;12.03;;
6376;SDS011;3221;48.858;10.128;2023-11-18T03:57:23;15.20;;;12.23;;
6376;SDS011;3221;48.858;10.128;2023-11-18T03:59:50;13.67;;;12.00;;
6376;SDS011;3221;48.858;10.128;2023-11-18T04:02:18;13.73;;;11.60;;
6376;SDS011;3221;48.858;10.128;2023-11-18T04:04:45;12.63;;;11.27;;
6376;SDS011;3221;48.858;10.128;2023-11-18T04:07:12;13.87;;;12.37;;
6376;SDS011;3221;48.858;10.128;2023-11-18T04:09:39;14.23;;;12.63;;
6376;SDS011;3221;48.858;10.128;2023-11-18T04:12:07;13.37;;;11.63;;
6376;SDS011;3221;48.858;10.128;2023-11-18T04:14:36;14.47;;;12.33;;
6376;SDS011;3221;48.858;10.128;2023-11-18T04:17:03;14.00;;;12.30;;
6376;SDS011;3221;48.858;10.128;2023-11-18T04:19:30;14.10;;;12.07;;
6376;SDS011;3221;48.858;10.128;2023-11-18T04:21:57;14.73;;;12.30;;
6376;SDS011;3221;48.858;10.128;2023-11-18T04:24:25;14.53;;;11.57;;
6376;SDS011;3221;48.858;10.128;2023-11-18T04:26:52;13.80;;;12.00;;
6376;SDS011;3221;48.858;10.128;2023-11-18T04:29:18;14.13;;;11.93;;
6376;SDS011;3221;48.858;10.128;2023-11-18T04:31:46;12.70;;;11.33;;
6376;SDS011;3221;48.858;10.128;2023-11-18T04:34:13;13.13;;;11.27;;
6376;SDS011;3221;48.858;10.128;2023-11-18T04:36:41;12.73;;;10.57;;
6376;SDS011;3221;48.858;10.128;2023-11-18T04:39:08;14.13;;;11.30;;
6376;SDS011;3221;48.858;10.128;2023-11-18T04:41:38;13.90;;;10.73;;
6376;SDS011;3221;48.858;10.128;2023-11-18T04:44:06;11.77;;;10.47;;
6376;SDS011;3221;48.858;10.128;2023-11-18T04:46:34;13.23;;;10.90;;
6376;SDS011;3221;48.858;10.128;2023-11-18T04:49:03;12.07;;;10.33;;
6376;SDS011;3221;48.858;10.128;2023-11-18T04:51:32;12.73;;;10.47;;
6376;SDS011;3221;48.858;10.128;2023-11-18T04:53:59;11.30;;;9.60;;
6376;SDS011;3221;48.858;10.128;2023-11-18T04:56:26;11.50;;;10.20;;
6376;SDS011;3221;48.858;10.128;2023-11-18T04:58:53;11.73;;;9.60;;
6376;SDS011;3221;48.858;10.128;2023-11-18T05:01:20;10.70;;;9.13;;
6376;SDS011;3221;48.858;10.128;2023-11-18T05:03:47;9.93;;;8.93;;
6376;SDS011;3221;48.858;10.128;2023-11-18T05:06:14;11.30;;;9.70;;
6376;SDS011;3221;48.858;10.128;2023-11-18T05:08:41;11.13;;;9.47;;
6376;SDS011;3221;48.858;10.128;2023-11-18T05:11:09;10.60;;;8.90;;
6376;SDS011;3221;48.858;10.128;2023-11-18T05:13:35;11.93;;;8.97;;
6376;SDS011;3221;48.858;10.128;2023-11-18T05:16:03;10.40;;;9.17;;
6376;SDS011;3221;48.858;10.128;2023-11-18T05:18:30;11.43;;;9.70;;
6376;SDS011;3221;48.858;10.128;2023-11-18T05:21:02;11.63;;;10.20;;
6376;SDS011;3221;48.858;10.128;2023-11-18T05:23:33;11.33;;;10.13;;
6376;SDS011;3221;48.858;10.128;2023-11-18T05:26:01;11.20;;;10.00;;
6376;SDS011;3221;48.858;10.128;2023-11-18T05:28:31;10.83;;;9.73;;
6376;SDS011;3221;48.858;10.128;2023-11-18T05:30:58;12.90;;;10.30;;
6376;SDS011;3221;48.858;10.128;2023-11-18T05:33:28;10.47;;;9.37;;
6376;SDS011;3221;48.858;10.128;2023-11-18T05:35:56;9.97;;;8.97;;
6376;SDS011;3221;48.858;10.128;2023-11-18T05:38:23;10.60;;;9.50;;
6376;SDS011;3221;48.858;10.128;2023-11-18T05:40:54;10.07;;;8.43;;
6376;SDS011;3221;48.858;10.128;2023-11-18T05:43:24;9.80;;;8.80;;
6376;SDS011;3221;48.858;10.128;2023-11-18T05:45:56;9.83;;;8.83;;
6376;SDS011;3221;48.858;10.128;2023-11-18T05:48:41;10.63;;;9.53;;
6376;SDS011;3221;48.858;10.128;2023-11-18T05:51:11;10.33;;;8.53;;
6376;SDS011;3221;48.858;10.128;2023-11-18T05:53:44;9.80;;;8.80;;
6376;SDS011;3221;48.858;10.128;2023-11-18T05:56:12;9.63;;;8.33;;
6376;SDS011;3221;48.858;10.128;2023-11-18T05:58:40;9.07;;;8.10;;
6376;SDS011;3221;48.858;10.128;2023-11-18T06:01:07;8.90;;;8.00;;
6376;SDS011;3221;48.858;10.128;2023-11-18T06:03:34;8.33;;;7.53;;
6376;SDS011;3221;48.858;10.128;2023-11-18T06:06:06;8.53;;;7.63;;
6376;SDS011;3221;48.858;10.128;2023-11-18T06:08:34;8.00;;;7.20;;
6376;SDS011;3221;48.858;10.128;2023-11-18T06:11:02;9.53;;;7.50;;
6376;SDS011;3221;48.858;10.128;2023-11-18T06:13:43;8.50;;;7.43;;
6376;SDS011;3221;48.858;10.128;2023-11-18T06:16:20;8.60;;;7.70;;
6376;SDS011;3221;48.858;10.128;2023-11-18T06:18:49;8.87;;;7.50;;
6376;SDS011;3221;48.858;10.128;2023-11-18T06:21:18;8.77;;;6.90;;
6376;SDS011;3221;48.858;10.128;2023-11-18T06:23:47;8.03;;;6.97;;
6376;SDS011;3221;48.858;10.128;2023-11-18T06:26:14;9.63;;;7.30;;
6376;SDS011;3221;48.858;10.128;2023-11-18T06:28:42;8.67;;;6.80;;
6376;SDS011;3221;48.858;10.128;2023-11-18T06:31:11;9.17;;;7.73;;
6376;SDS011;3221;48.858;10.128;2023-11-18T06:33:42;9.33;;;8.07;;
6376;SDS011;3221;48.858;10.128;2023-11-18T06:38:40;7.97;;;7.10;;
6376;SDS011;3221;48.858;10.128;2023-11-18T06:41:08;7.80;;;7.00;;
6376;SDS011;3221;48.858;10.128;2023-11-18T06:43:41;9.97;;;7.17;;
6376;SDS011;3221;48.858;10.128;2023-11-18T06:46:19;7.63;;;6.73;;
6376;SDS011;3221;48.858;10.128;2023-11-18T06:48:51;7.53;;;6.80;;
6376;SDS011;3221;48.858;10.128;2023-11-18T06:51:24;7.07;;;6.37;;
6376;SDS011;3221;48.858;10.128;2023-11-18T06:53:54;8.03;;;7.00;;
6376;SDS011;3221;48.858;10.128;2023-11-18T06:56:21;7.07;;;6.33;;
6376;SDS011;3221;48.858;10.128;2023-11-18T06:58:52;7.47;;;6.67;;
6376;SDS011;3221;48.858;10.128;2023-11-18T07:01:19;8.10;;;7.00;;
6376;SDS011;3221;48.858;10.128;2023-11-18T07:03:47;7.30;;;6.60;;
6376;SDS011;3221;48.858;10.128;2023-11-18T07:06:18;7.50;;;6.53;;
6376;SDS011;3221;48.858;10.128;2023-11-18T07:08:49;6.83;;;6.10;;
6376;SDS011;3221;48.858;10.128;2023-11-18T07:11:17;8.93;;;7.70;;
6376;SDS011;3221;48.858;10.128;2023-11-18T07:13:44;8.27;;;7.43;;
6376;SDS011;3221;48.858;10.128;2023-11-18T07:16:12;8.57;;;7.00;;
6376;SDS011;3221;48.858;10.128;2023-11-18T07:18:41;7.00;;;6.30;;
6376;SDS011;3221;48.858;10.128;2023-11-18T07:21:10;8.57;;;7.67;;
6376;SDS011;3221;48.858;10.128;2023-11-18T07:23:38;8.07;;;7.13;;
6376;SDS011;3221;48.858;10.128;2023-11-18T07:26:04;8.43;;;7.07;;
6376;SDS011;3221;48.858;10.128;2023-11-18T07:28:32;9.70;;;7.90;;
6376;SDS011;3221;48.858;10.128;2023-11-18T07:30:59;8.90;;;7.87;;
6376;SDS011;3221;48.858;10.128;2023-11-18T07:33:26;8.90;;;7.30;;
6376;SDS011;3221;48.858;10.128;2023-11-18T07:35:53;8.33;;;7.40;;
6376;SDS011;3221;48.858;10.128;2023-11-18T07:38:21;9.00;;;7.60;;
6376;SDS011;3221;48.858;10.128;2023-11-18T07:40:48;9.30;;;8.20;;
6376;SDS011;3221;48.858;10.128;2023-11-18T07:43:16;9.77;;;8.20;;
6376;SDS011;3221;48.858;10.128;2023-11-18T07:45:42;10.07;;;8.40;;
6376;SDS011;3221;48.858;10.128;2023-11-18T07:48:11;9.33;;;8.13;;
6376;SDS011;3221;48.858;10.128;2023-11-18T07:50:39;9.30;;;7.77;;
6376;SDS011;3221;48.858;10.128;2023-11-18T07:53:11;8.50;;;7.60;;
6376;SDS011;3221;48.858;10.128;2023-11-18T07:55:38;9.70;;;7.93;;
6376;SDS011;3221;48.858;10.128;2023-11-18T07:58:06;9.37;;;7.63;;
6376;SDS011;3221;48.858;10.128;2023-11-18T08:00:37;9.47;;;7.77;;
6376;SDS011;3221;48.858;10.128;2023-11-18T08:03:06;9.23;;;7.80;;
6376;SDS011;3221;48.858;10.128;2023-11-18T08:05:38;7.73;;;6.93;;
6376;SDS011;3221;48.858;10.128;2023-11-18T08:08:10;7.37;;;6.60;;
6376;SDS011;3221;48.858;10.128;2023-11-18T08:10:38;7.27;;;6.50;;
6376;SDS011;3221;48.858;10.128;2023-11-18T08:13:07;9.50;;;6.50;;
6376;SDS011;3221;48.858;10.128;2023-11-18T08:15:37;10.20;;;5.93;;
6376;SDS011;3221;48.858;10.128;2023-11-18T08:18:06;9.07;;;5.57;;
6376;SDS011;3221;48.858;10.128;2023-11-18T08:20:33;11.07;;;5.63;;
6376;SDS011;3221;48.858;10.128;2023-11-18T08:23:01;11.80;;;5.17;;
6376;SDS011;3221;48.858;10.128;2023-11-18T08:25:28;10.50;;;4.70;;
6376;SDS011;3221;48.858;10.128;2023-11-18T08:27:55;9.60;;;4.97;;
6376;SDS011;3221;48.858;10.128;2023-11-18T08:30:22;5.87;;;4.30;;
6376;SDS011;3221;48.858;10.128;2023-11-18T08:32:50;7.67;;;4.00;;
6376;SDS011;3221;48.858;10.128;2023-11-18T08:35:17;3.43;;;3.13;;
6376;SDS011;3221;48.858;10.128;2023-11-18T08:37:44;5.57;;;3.50;;
6376;SDS011;3221;48.858;10.128;2023-11-18T08:40:12;5.10;;;3.70;;
6376;SDS011;3221;48.858;10.128;2023-11-18T08:42:42;6.23;;;3.13;;
6376;SDS011;3221;48.858;10.128;2023-11-18T08:45:16;5.63;;;3.40;;
6376;SDS011;3221;48.858;10.128;2023-11-18T08:47:54;6.53;;;5.37;;
6376;SDS011;3221;48.858;10.128;2023-11-18T08:50:25;9.03;;;7.50;;
6376;SDS011;3221;48.858;10.128;2023-11-18T08:52:54;7.83;;;6.33;;
6376;SDS011;3221;48.858;10.128;2023-11-18T08:55:26;6.60;;;5.60;;
6376;SDS011;3221;48.858;10.128;2023-11-18T08:58:12;6.10;;;5.07;;
6376;SDS011;3221;48.858;10.128;2023-11-18T09:00:47;6.20;;;5.17;;
6376;SDS011;3221;48.858;10.128;2023-11-18T09:03:24;4.73;;;4.00;;
6376;SDS011;3221;48.858;10.128;2023-11-18T09:05:57;7.63;;;6.30;;
6376;SDS011;3221;48.858;10.128;2023-11-18T09:08:26;6.90;;;5.07;;
6376;SDS011;3221;48.858;10.128;2023-11-18T09:10:56;5.50;;;4.77;;
6376;SDS011;3221;48.858;10.128;2023-11-18T09:13:24;4.87;;;4.40;;
6376;SDS011;3221;48.858;10.128;2023-11-18T09:15:56;5.77;;;4.67;;
6376;SDS011;3221;48.858;10.128;2023-11-18T09:18:30;6.57;;;4.67;;
6376;SDS011;3221;48.858;10.128;2023-11-18T09:21:00;4.93;;;4.17;;
6376;SDS011;3221;48.858;10.128;2023-11-18T09:23:28;4.37;;;3.83;;
6376;SDS011;3221;48.858;10.128;2023-11-18T09:26:07;5.57;;;3.67;;
6376;SDS011;3221;48.858;10.128;2023-11-18T09:28:34;5.93;;;3.83;;
6376;SDS011;3221;48.858;10.128;2023-11-18T09:31:02;5.30;;;4.80;;
6376;SDS011;3221;48.858;10.128;2023-11-18T09:33:31;4.90;;;4.40;;
6376;SDS011;3221;48.858;10.128;2023-11-18T09:35:59;5.67;;;4.80;;
6376;SDS011;3221;48.858;10.128;2023-11-18T09:38:29;6.87;;;5.50;;
6376;SDS011;3221;48.858;10.128;2023-11-18T09:40:57;9.53;;;8.23;;
6376;SDS011;3221;48.858;10.128;2023-11-18T09:43:29;15.00;;;10.60;;
6376;SDS011;3221;48.858;10.128;2023-11-18T09:46:03;15.37;;;11.17;;
6376;SDS011;3221;48.858;10.128;2023-11-18T09:48:47;17.23;;;12.17;;
6376;SDS011;3221;48.858;10.128;2023-11-18T09:51:23;11.53;;;8.97;;
6376;SDS011;3221;48.858;10.128;2023-11-18T09:53:54;10.50;;;7.37;;
6376;SDS011;3221;48.858;10.128;2023-11-18T09:59:06;7.20;;;5.30;;
6376;SDS011;3221;48.858;10.128;2023-11-18T10:01:43;7.97;;;5.30;;
6376;SDS011;3221;48.858;10.128;2023-11-18T10:04:11;6.03;;;5.00;;
6376;SDS011;3221;48.858;10.128;2023-11-18T10:06:40;4.73;;;4.27;;
6376;SDS011;3221;48.858;10.128;2023-11-18T10:09:11;5.67;;;3.87;;
6376;SDS011;3221;48.858;10.128;2023-11-18T10:11:48;4.50;;;3.90;;
6376;SDS011;3221;48.858;10.128;2023-11-18T10:14:15;3.73;;;3.37;;
6376;SDS011;3221;48.858;10.128;2023-11-18T10:16:45;4.93;;;3.93;;
6376;SDS011;3221;48.858;10.128;2023-11-18T10:19:15;9.33;;;8.43;;
6376;SDS011;3221;48.858;10.128;2023-11-18T10:21:44;5.43;;;4.93;;
6376;SDS011;3221;48.858;10.128;2023-11-18T10:24:15;5.57;;;5.00;;
6376;SDS011;3221;48.858;10.128;2023-11-18T10:26:54;4.87;;;3.70;;
6376;SDS011;3221;48.858;10.128;2023-11-18T10:29:25;4.10;;;3.70;;
6376;SDS011;3221;48.858;10.128;2023-11-18T10:32:04;3.73;;;3.20;;
6376;SDS011;3221;48.858;10.128;2023-11-18T10:34:36;3.50;;;3.20;;
6376;SDS011;3221;48.858;10.128;2023-11-18T10:37:04;3.50;;;3.20;;
6376;SDS011;3221;48.858;10.128;2023-11-18T10:39:33;3.60;;;3.00;;
6376;SDS011;3221;48.858;10.128;2023-11-18T10:42:02;5.00;;;3.33;;
6376;SDS011;3221;48.858;10.128;2023-11-18T10:44:29;4.53;;;2.83;;
6376;SDS011;3221;48.858;10.128;2023-11-18T10:46:56;2.50;;;2.30;;
6376;SDS011;3221;48.858;10.128;2023-11-18T10:49:28;3.00;;;2.50;;
6376;SDS011;3221;48.858;10.128;2023-11-18T10:52:04;3.33;;;2.43;;
6376;SDS011;3221;48.858;10.128;2023-11-18T10:54:34;2.70;;;2.00;;
6376;SDS011;3221;48.858;10.128;2023-11-18T10:57:03;3.57;;;2.70;;
6376;SDS011;3221;48.858;10.128;2023-11-18T10:59:34;5.80;;;2.70;;
6376;SDS011;3221;48.858;10.128;2023-11-18T11:02:17;3.57;;;2.40;;
6376;SDS011;3221;48.858;10.128;2023-11-18T11:04:46;3.23;;;2.20;;
6376;SDS011;3221;48.858;10.128;2023-11-18T11:07:15;4.80;;;2.57;;
6376;SDS011;3221;48.858;10.128;2023-11-18T11:09:45;2.50;;;2.30;;
6376;SDS011;3221;48.858;10.128;2023-11-18T11:12:12;3.37;;;2.70;;
6376;SDS011;3221;48.858;10.128;2023-11-18T11:14:46;2.27;;;2.07;;
6376;SDS011;3221;48.858;10.128;2023-11-18T11:17:19;2.67;;;2.10;;
6376;SDS011;3221;48.858;10.128;2023-11-18T11:22:26;3.50;;;2.40;;
6376;SDS011;3221;48.858;10.128;2023-11-18T11:25:14;2.30;;;2.10;;
6376;SDS011;3221;48.858;10.128;2023-11-18T11:28:09;3.80;;;2.57;;
6376;SDS011;3221;48.858;10.128;2023-11-18T11:30:42;2.40;;;2.20;;
6376;SDS011;3221;48.858;10.128;2023-11-18T11:36:03;2.50;;;2.27;;
6376;SDS011;3221;48.858;10.128;2023-11-18T11:38:38;2.40;;;2.20;;
6376;SDS011;3221;48.858;10.128;2023-11-18T11:41:06;2.50;;;2.30;;
6376;SDS011;3221;48.858;10.128;2023-11-18T11:43:35;3.57;;;2.30;;
6376;SDS011;3221;48.858;10.128;2023-11-18T11:46:02;2.50;;;2.20;;
6376;SDS011;3221;48.858;10.128;2023-11-18T11:48:40;2.63;;;2.30;;
6376;SDS011;3221;48.858;10.128;2023-11-18T11:51:18;2.40;;;2.20;;
6376;SDS011;3221;48.858;10.128;2023-11-18T11:54:09;2.67;;;2.17;;
6376;SDS011;3221;48.858;10.128;2023-11-18T11:56:45;2.97;;;2.20;;
6376;SDS011;3221;48.858;10.128;2023-11-18T11:59:35;3.53;;;2.30;;
6376;SDS011;3221;48.858;10.128;2023-11-18T12:02:22;3.10;;;2.20;;
6376;SDS011;3221;48.858;10.128;2023-11-18T12:04:56;2.60;;;2.20;;
6376;SDS011;3221;48.858;10.128;2023-11-18T12:07:25;3.73;;;2.40;;
6376;SDS011;3221;48.858;10.128;2023-11-18T12:09:58;2.60;;;2.40;;
6376;SDS011;3221;48.858;10.128;2023-11-18T12:12:27;6.27;;;4.33;;
6376;SDS011;3221;48.858;10.128;2023-11-18T12:14:58;5.13;;;2.80;;
6376;SDS011;3221;48.858;10.128;2023-11-18T12:20:41;3.67;;;2.77;;
6376;SDS011;3221;48.858;10.128;2023-11-18T12:23:20;3.43;;;2.67;;
6376;SDS011;3221;48.858;10.128;2023-11-18T12:25:52;6.03;;;2.70;;
6376;SDS011;3221;48.858;10.128;2023-11-18T12:28:27;3.90;;;2.90;;
6376;SDS011;3221;48.858;10.128;2023-11-18T12:31:01;2.77;;;2.40;;
6376;SDS011;3221;48.858;10.128;2023-11-18T12:33:51;2.73;;;2.37;;
6376;SDS011;3221;48.858;10.128;2023-11-18T12:39:12;2.60;;;2.27;;
6376;SDS011;3221;48.858;10.128;2023-11-18T12:42:04;2.30;;;2.10;;
6376;SDS011;3221;48.858;10.128;2023-11-18T12:47:32;2.57;;;2.03;;
6376;SDS011;3221;48.858;10.128;2023-11-18T12:50:08;2.67;;;1.70;;
6376;SDS011;3221;48.858;10.128;2023-11-18T12:52:43;3.37;;;1.80;;
6376;SDS011;3221;48.858;10.128;2023-11-18T12:55:12;3.33;;;1.90;;
6376;SDS011;3221;48.858;10.128;2023-11-18T12:57:45;2.10;;;1.90;;
6376;SDS011;3221;48.858;10.128;2023-11-18T13:00:16;2.33;;;2.00;;
6376;SDS011;3221;48.858;10.128;2023-11-18T13:02:54;3.07;;;2.70;;
6376;SDS011;3221;48.858;10.128;2023-11-18T13:05:21;3.50;;;2.60;;
6376;SDS011;3221;48.858;10.128;2023-11-18T13:07:48;6.07;;;3.30;;
6376;SDS011;3221;48.858;10.128;2023-11-18T13:10:16;4.40;;;3.80;;
6376;SDS011;3221;48.858;10.128;2023-11-18T13:12:43;4.27;;;3.80;;
6376;SDS011;3221;48.858;10.128;2023-11-18T13:15:12;5.27;;;4.23;;
6376;SDS011;3221;48.858;10.128;2023-11-18T13:17:39;5.13;;;4.63;;
6376;SDS011;3221;48.858;10.128;2023-11-18T13:20:11;5.20;;;4.70;;
6376;SDS011;3221;48.858;10.128;2023-11-18T13:22:42;5.80;;;4.57;;
6376;SDS011;3221;48.858;10.128;2023-11-18T13:25:14;6.87;;;5.53;;
6376;SDS011;3221;48.858;10.128;2023-11-18T13:27:43;5.40;;;4.87;;
6376;SDS011;3221;48.858;10.128;2023-11-18T13:30:10;5.77;;;5.17;;
6376;SDS011;3221;48.858;10.128;2023-11-18T13:32:40;8.00;;;5.80;;
6376;SDS011;3221;48.858;10.128;2023-11-18T13:35:08;6.30;;;5.30;;
6376;SDS011;3221;48.858;10.128;2023-11-18T13:37:37;7.43;;;5.50;;
6376;SDS011;3221;48.858;10.128;2023-11-18T13:40:04;5.67;;;5.00;;
6376;SDS011;3221;48.858;10.128;2023-11-18T13:42:32;7.00;;;5.90;;
6376;SDS011;3221;48.858;10.128;2023-11-18T13:45:05;6.37;;;5.33;;
6376;SDS011;3221;48.858;10.128;2023-11-18T13:47:38;7.90;;;5.87;;
6376;SDS011;3221;48.858;10.128;2023-11-18T13:50:07;7.00;;;6.20;;
6376;SDS011;3221;48.858;10.128;2023-11-18T13:52:35;8.40;;;6.77;;
6376;SDS011;3221;48.858;10.128;2023-11-18T13:55:05;8.60;;;7.27;;
6376;SDS011;3221;48.858;10.128;2023-11-18T13:57:33;8.20;;;6.83;;
6376;SDS011;3221;48.858;10.128;2023-11-18T14:00:01;8.20;;;6.37;;
6376;SDS011;3221;48.858;10.128;2023-11-18T14:02:31;7.80;;;6.47;;
6376;SDS011;3221;48.858;10.128;2023-11-18T14:04:59;6.67;;;5.97;;
6376;SDS011;3221;48.858;10.128;2023-11-18T14:07:26;8.20;;;6.23;;
6376;SDS011;3221;48.858;10.128;2023-11-18T14:09:54;7.33;;;6.30;;
6376;SDS011;3221;48.858;10.128;2023-11-18T14:12:23;8.50;;;6.50;;
6376;SDS011;3221;48.858;10.128;2023-11-18T14:14:53;7.30;;;6.27;;
6376;SDS011;3221;48.858;10.128;2023-11-18T14:17:20;8.50;;;6.83;;
6376;SDS011;3221;48.858;10.128;2023-11-18T14:19:48;7.80;;;6.63;;
6376;SDS011;3221;48.858;10.128;2023-11-18T14:22:15;8.43;;;6.53;;
6376;SDS011;3221;48.858;10.128;2023-11-18T14:24:42;7.47;;;6.07;;
6376;SDS011;3221;48.858;10.128;2023-11-18T14:27:09;8.80;;;6.90;;
6376;SDS011;3221;48.858;10.128;2023-11-18T14:29:37;8.90;;;6.80;;
6376;SDS011;3221;48.858;10.128;2023-11-18T14:32:04;8.60;;;6.63;;
6376;SDS011;3221;48.858;10.128;2023-11-18T14:34:33;12.00;;;7.13;;
6376;SDS011;3221;48.858;10.128;2023-11-18T14:36:59;8.87;;;6.60;;
6376;SDS011;3221;48.858;10.128;2023-11-18T14:39:27;8.63;;;6.53;;
6376;SDS011;3221;48.858;10.128;2023-11-18T14:41:54;7.90;;;6.30;;
6376;SDS011;3221;48.858;10.128;2023-11-18T14:44:21;9.57;;;7.00;;
6376;SDS011;3221;48.858;10.128;2023-11-18T14:46:48;8.33;;;7.17;;
6376;SDS011;3221;48.858;10.128;2023-11-18T14:49:15;9.03;;;6.90;;
6376;SDS011;3221;48.858;10.128;2023-11-18T14:51:43;7.40;;;6.43;;
6376;SDS011;3221;48.858;10.128;2023-11-18T14:54:10;7.47;;;6.67;;
6376;SDS011;3221;48.858;10.128;2023-11-18T14:56:38;8.33;;;6.40;;
6376;SDS011;3221;48.858;10.128;2023-11-18T14:59:04;7.80;;;6.80;;
6376;SDS011;3221;48.858;10.128;2023-11-18T15:01:32;8.37;;;6.23;;
6376;SDS011;3221;48.858;10.128;2023-11-18T15:03:59;9.40;;;6.43;;
6376;SDS011;3221;48.858;10.128;2023-11-18T15:06:27;7.13;;;6.10;;
6376;SDS011;3221;48.858;10.128;2023-11-18T15:08:54;8.20;;;6.00;;
6376;SDS011;3221;48.858;10.128;2023-11-18T15:11:23;9.97;;;6.23;;
6376;SDS011;3221;48.858;10.128;2023-11-18T15:13:51;7.70;;;6.07;;
6376;SDS011;3221;48.858;10.128;2023-11-18T15:16:22;8.60;;;7.43;;
6376;SDS011;3221;48.858;10.128;2023-11-18T15:18:49;8.93;;;7.20;;
6376;SDS011;3221;48.858;10.128;2023-11-18T15:21:19;9.77;;;7.60;;
6376;SDS011;3221;48.858;10.128;2023-11-18T15:23:46;10.93;;;7.90;;
6376;SDS011;3221;48.858;10.128;2023-11-18T15:26:14;14.67;;;10.47;;
6376;SDS011;3221;48.858;10.128;2023-11-18T15:28:42;23.13;;;15.33;;
6376;SDS011;3221;48.858;10.128;2023-11-18T15:31:09;25.43;;;15.60;;